sensor_id;sensor_type;location;lat;lon;timestamp;P1;durP1;ratioP1;P2;durP2;ratioP2
18447;SDS011;9353;50.956;6.920;2022-10-30T00:01:47;10.77;;;6.13;;
18447;SDS011;9353;50.956;6.920;2022-10-30T00:04:14;6.47;;;5.80;;
18447;SDS011;9353;50.956;6.920;2022-10-30T00:06:41;12.47;;;6.13;;
18447;SDS011;9353;50.956;6.920;2022-10-30T00:09:08;6.30;;;5.80;;
18447;SDS011;9353;50.956;6.920;2022-10-30T00:11:36;9.53;;;5.93;;
18447;SDS011;9353;50.956;6.920;2022-10-30T00:14:04;10.83;;;5.63;;
18447;SDS011;9353;50.956;6.920;2022-10-30T00:16:31;11.63;;;5.87;;
18447;SDS011;9353;50.956;6.920;2022-10-30T00:18:58;6.70;;;6.17;;
18447;SDS011;9353;50.956;6.920;2022-10-30T00:21:26;9.97;;;6.43;;
18447;SDS011;9353;50.956;6.920;2022-10-30T00:23:53;6.87;;;6.07;;
18447;SDS011;9353;50.956;6.920;2022-10-30T00:26:20;8.60;;;5.80;;
18447;SDS011;9353;50.956;6.920;2022-10-30T00:28:48;6.97;;;5.73;;
18447;SDS011;9353;50.956;6.920;2022-10-30T00:31:17;8.97;;;5.60;;
18447;SDS011;9353;50.956;6.920;2022-10-30T00:33:47;7.33;;;6.17;;
18447;SDS011;9353;50.956;6.920;2022-10-30T00:36:14;6.93;;;5.70;;
18447;SDS011;9353;50.956;6.920;2022-10-30T00:38:41;6.27;;;5.77;;
18447;SDS011;9353;50.956;6.920;2022-10-30T00:41:12;8.00;;;5.60;;
18447;SDS011;9353;50.956;6.920;2022-10-30T00:43:39;10.37;;;6.03;;
18447;SDS011;9353;50.956;6.920;2022-10-30T00:46:14;8.87;;;5.67;;
18447;SDS011;9353;50.956;6.920;2022-10-30T00:48:44;7.07;;;5.63;;
18447;SDS011;9353;50.956;6.920;2022-10-30T00:51:11;7.57;;;5.63;;
18447;SDS011;9353;50.956;6.920;2022-10-30T00:53:39;6.87;;;5.77;;
18447;SDS011;9353;50.956;6.920;2022-10-30T00:56:07;5.80;;;5.10;;
18447;SDS011;9353;50.956;6.920;2022-10-30T00:58:35;15.13;;;5.90;;
18447;SDS011;9353;50.956;6.920;2022-10-30T01:01:05;8.03;;;5.60;;
18447;SDS011;9353;50.956;6.920;2022-10-30T01:03:33;5.90;;;5.40;;
18447;SDS011;9353;50.956;6.920;2022-10-30T01:06:03;7.27;;;5.87;;
18447;SDS011;9353;50.956;6.920;2022-10-30T01:08:31;8.77;;;5.90;;
18447;SDS011;9353;50.956;6.920;2022-10-30T01:10:59;9.87;;;5.60;;
18447;SDS011;9353;50.956;6.920;2022-10-30T01:13:28;8.10;;;5.83;;
18447;SDS011;9353;50.956;6.920;2022-10-30T01:16:00;7.37;;;6.00;;
18447;SDS011;9353;50.956;6.920;2022-10-30T01:18:33;9.20;;;6.87;;
18447;SDS011;9353;50.956;6.920;2022-10-30T01:23:47;6.87;;;6.20;;
18447;SDS011;9353;50.956;6.920;2022-10-30T01:26:18;6.43;;;5.60;;
18447;SDS011;9353;50.956;6.920;2022-10-30T01:29:01;6.73;;;6.17;;
18447;SDS011;9353;50.956;6.920;2022-10-30T01:31:32;6.67;;;6.07;;
18447;SDS011;9353;50.956;6.920;2022-10-30T01:34:05;7.80;;;6.30;;
18447;SDS011;9353;50.956;6.920;2022-10-30T01:36:36;8.37;;;5.73;;
18447;SDS011;9353;50.956;6.920;2022-10-30T01:39:06;11.20;;;6.73;;
18447;SDS011;9353;50.956;6.920;2022-10-30T01:41:34;8.17;;;5.63;;
18447;SDS011;9353;50.956;6.920;2022-10-30T01:44:02;10.17;;;5.87;;
18447;SDS011;9353;50.956;6.920;2022-10-30T01:46:38;7.67;;;5.60;;
18447;SDS011;9353;50.956;6.920;2022-10-30T01:49:14;7.30;;;6.30;;
18447;SDS011;9353;50.956;6.920;2022-10-30T01:51:50;9.37;;;5.97;;
18447;SDS011;9353;50.956;6.920;2022-10-30T01:54:26;8.53;;;5.57;;
18447;SDS011;9353;50.956;6.920;2022-10-30T01:56:58;7.03;;;5.57;;
18447;SDS011;9353;50.956;6.920;2022-10-30T01:59:28;10.10;;;5.90;;
18447;SDS011;9353;50.956;6.920;2022-10-30T02:01:57;6.27;;;5.80;;
18447;SDS011;9353;50.956;6.920;2022-10-30T02:04:24;7.00;;;5.80;;
18447;SDS011;9353;50.956;6.920;2022-10-30T02:06:51;9.10;;;6.80;;
18447;SDS011;9353;50.956;6.920;2022-10-30T02:09:18;7.20;;;5.90;;
18447;SDS011;9353;50.956;6.920;2022-10-30T02:11:47;9.13;;;5.67;;
18447;SDS011;9353;50.956;6.920;2022-10-30T02:14:16;7.17;;;6.50;;
18447;SDS011;9353;50.956;6.920;2022-10-30T02:16:45;15.07;;;8.00;;
18447;SDS011;9353;50.956;6.920;2022-10-30T02:19:14;7.23;;;6.27;;
18447;SDS011;9353;50.956;6.920;2022-10-30T02:21:43;10.87;;;6.57;;
18447;SDS011;9353;50.956;6.920;2022-10-30T02:24:10;8.17;;;5.87;;
18447;SDS011;9353;50.956;6.920;2022-10-30T02:26:37;7.10;;;5.67;;
18447;SDS011;9353;50.956;6.920;2022-10-30T02:29:04;6.57;;;5.70;;
18447;SDS011;9353;50.956;6.920;2022-10-30T02:31:31;8.00;;;6.23;;
18447;SDS011;9353;50.956;6.920;2022-10-30T02:33:58;7.43;;;6.13;;
18447;SDS011;9353;50.956;6.920;2022-10-30T02:36:25;8.03;;;5.77;;
18447;SDS011;9353;50.956;6.920;2022-10-30T02:38:54;6.47;;;5.73;;
18447;SDS011;9353;50.956;6.920;2022-10-30T02:41:21;7.57;;;6.27;;
18447;SDS011;9353;50.956;6.920;2022-10-30T02:43:49;9.90;;;6.53;;
18447;SDS011;9353;50.956;6.920;2022-10-30T02:46:17;6.30;;;5.73;;
18447;SDS011;9353;50.956;6.920;2022-10-30T02:48:44;6.87;;;6.20;;
18447;SDS011;9353;50.956;6.920;2022-10-30T02:51:11;6.50;;;5.87;;
18447;SDS011;9353;50.956;6.920;2022-10-30T02:53:38;8.73;;;6.07;;
18447;SDS011;9353;50.956;6.920;2022-10-30T02:56:08;8.20;;;6.73;;
18447;SDS011;9353;50.956;6.920;2022-10-30T02:58:35;7.03;;;6.30;;
18447;SDS011;9353;50.956;6.920;2022-10-30T03:01:06;7.73;;;5.80;;
18447;SDS011;9353;50.956;6.920;2022-10-30T03:03:33;7.33;;;6.40;;
18447;SDS011;9353;50.956;6.920;2022-10-30T03:06:00;6.87;;;6.17;;
18447;SDS011;9353;50.956;6.920;2022-10-30T03:08:28;8.67;;;6.17;;
18447;SDS011;9353;50.956;6.920;2022-10-30T03:10:59;8.93;;;6.90;;
18447;SDS011;9353;50.956;6.920;2022-10-30T03:13:28;7.47;;;6.20;;
18447;SDS011;9353;50.956;6.920;2022-10-30T03:15:58;7.90;;;6.40;;
18447;SDS011;9353;50.956;6.920;2022-10-30T03:18:26;6.13;;;5.63;;
18447;SDS011;9353;50.956;6.920;2022-10-30T03:20:56;9.53;;;6.27;;
18447;SDS011;9353;50.956;6.920;2022-10-30T03:23:23;9.20;;;7.07;;
18447;SDS011;9353;50.956;6.920;2022-10-30T03:25:51;6.80;;;5.83;;
18447;SDS011;9353;50.956;6.920;2022-10-30T03:28:19;12.30;;;6.70;;
18447;SDS011;9353;50.956;6.920;2022-10-30T03:30:48;9.07;;;5.83;;
18447;SDS011;9353;50.956;6.920;2022-10-30T03:33:15;6.10;;;5.50;;
18447;SDS011;9353;50.956;6.920;2022-10-30T03:35:42;8.00;;;6.00;;
18447;SDS011;9353;50.956;6.920;2022-10-30T03:38:09;7.00;;;6.40;;
18447;SDS011;9353;50.956;6.920;2022-10-30T03:40:36;7.57;;;6.80;;
18447;SDS011;9353;50.956;6.920;2022-10-30T03:43:04;8.80;;;6.30;;
18447;SDS011;9353;50.956;6.920;2022-10-30T03:45:31;7.30;;;6.30;;
18447;SDS011;9353;50.956;6.920;2022-10-30T03:48:00;9.83;;;5.63;;
18447;SDS011;9353;50.956;6.920;2022-10-30T03:50:27;6.70;;;6.20;;
18447;SDS011;9353;50.956;6.920;2022-10-30T03:52:54;8.47;;;6.37;;
18447;SDS011;9353;50.956;6.920;2022-10-30T03:55:21;8.97;;;6.30;;
18447;SDS011;9353;50.956;6.920;2022-10-30T03:57:48;9.57;;;6.40;;
18447;SDS011;9353;50.956;6.920;2022-10-30T04:00:16;10.80;;;6.47;;
18447;SDS011;9353;50.956;6.920;2022-10-30T04:02:44;6.70;;;5.93;;
18447;SDS011;9353;50.956;6.920;2022-10-30T04:05:12;8.00;;;7.30;;
18447;SDS011;9353;50.956;6.920;2022-10-30T04:07:40;14.57;;;6.50;;
18447;SDS011;9353;50.956;6.920;2022-10-30T04:10:07;7.93;;;6.47;;
18447;SDS011;9353;50.956;6.920;2022-10-30T04:12:34;6.93;;;6.20;;
18447;SDS011;9353;50.956;6.920;2022-10-30T04:15:01;9.27;;;6.37;;
18447;SDS011;9353;50.956;6.920;2022-10-30T04:17:29;7.60;;;6.20;;
18447;SDS011;9353;50.956;6.920;2022-10-30T04:19:56;9.53;;;5.17;;
18447;SDS011;9353;50.956;6.920;2022-10-30T04:22:24;10.63;;;6.67;;
18447;SDS011;9353;50.956;6.920;2022-10-30T04:24:51;7.03;;;5.60;;
18447;SDS011;9353;50.956;6.920;2022-10-30T04:27:18;12.27;;;6.30;;
18447;SDS011;9353;50.956;6.920;2022-10-30T04:29:46;6.63;;;5.97;;
18447;SDS011;9353;50.956;6.920;2022-10-30T04:32:13;8.30;;;6.50;;
18447;SDS011;9353;50.956;6.920;2022-10-30T04:34:40;9.83;;;6.40;;
18447;SDS011;9353;50.956;6.920;2022-10-30T04:37:07;10.63;;;6.50;;
18447;SDS011;9353;50.956;6.920;2022-10-30T04:39:36;6.67;;;5.80;;
18447;SDS011;9353;50.956;6.920;2022-10-30T04:42:03;8.13;;;6.10;;
18447;SDS011;9353;50.956;6.920;2022-10-30T04:44:30;10.13;;;6.23;;
18447;SDS011;9353;50.956;6.920;2022-10-30T04:46:57;7.77;;;6.07;;
18447;SDS011;9353;50.956;6.920;2022-10-30T04:49:24;7.93;;;6.30;;
18447;SDS011;9353;50.956;6.920;2022-10-30T04:51:51;8.00;;;7.23;;
18447;SDS011;9353;50.956;6.920;2022-10-30T04:54:18;8.30;;;6.73;;
18447;SDS011;9353;50.956;6.920;2022-10-30T04:56:47;7.47;;;6.77;;
18447;SDS011;9353;50.956;6.920;2022-10-30T04:59:14;7.67;;;6.80;;
18447;SDS011;9353;50.956;6.920;2022-10-30T05:01:41;6.90;;;6.13;;
18447;SDS011;9353;50.956;6.920;2022-10-30T05:04:08;8.23;;;6.60;;
18447;SDS011;9353;50.956;6.920;2022-10-30T05:06:35;7.00;;;6.37;;
18447;SDS011;9353;50.956;6.920;2022-10-30T05:09:02;7.93;;;6.07;;
18447;SDS011;9353;50.956;6.920;2022-10-30T05:11:29;6.87;;;6.23;;
18447;SDS011;9353;50.956;6.920;2022-10-30T05:13:58;10.10;;;6.17;;
18447;SDS011;9353;50.956;6.920;2022-10-30T05:16:25;6.67;;;6.17;;
18447;SDS011;9353;50.956;6.920;2022-10-30T05:18:52;6.83;;;6.13;;
18447;SDS011;9353;50.956;6.920;2022-10-30T05:21:19;8.03;;;5.93;;
18447;SDS011;9353;50.956;6.920;2022-10-30T05:23:46;9.17;;;6.40;;
18447;SDS011;9353;50.956;6.920;2022-10-30T05:26:13;14.57;;;6.33;;
18447;SDS011;9353;50.956;6.920;2022-10-30T05:28:40;6.57;;;6.17;;
18447;SDS011;9353;50.956;6.920;2022-10-30T05:31:09;13.00;;;6.37;;
18447;SDS011;9353;50.956;6.920;2022-10-30T05:33:36;6.57;;;5.77;;
18447;SDS011;9353;50.956;6.920;2022-10-30T05:36:03;8.53;;;6.07;;
18447;SDS011;9353;50.956;6.920;2022-10-30T05:38:30;8.90;;;6.97;;
18447;SDS011;9353;50.956;6.920;2022-10-30T05:40:57;9.60;;;5.73;;
18447;SDS011;9353;50.956;6.920;2022-10-30T05:43:25;7.10;;;6.53;;
18447;SDS011;9353;50.956;6.920;2022-10-30T05:45:52;7.07;;;6.30;;
18447;SDS011;9353;50.956;6.920;2022-10-30T05:48:20;8.27;;;6.10;;
18447;SDS011;9353;50.956;6.920;2022-10-30T05:50:47;8.07;;;5.93;;
18447;SDS011;9353;50.956;6.920;2022-10-30T05:53:14;11.07;;;6.07;;
18447;SDS011;9353;50.956;6.920;2022-10-30T05:55:41;6.17;;;5.67;;
18447;SDS011;9353;50.956;6.920;2022-10-30T05:58:08;7.10;;;6.40;;
18447;SDS011;9353;50.956;6.920;2022-10-30T06:00:36;9.63;;;6.40;;
18447;SDS011;9353;50.956;6.920;2022-10-30T06:03:05;8.83;;;6.07;;
18447;SDS011;9353;50.956;6.920;2022-10-30T06:05:34;6.40;;;5.73;;
18447;SDS011;9353;50.956;6.920;2022-10-30T06:08:02;7.87;;;5.57;;
18447;SDS011;9353;50.956;6.920;2022-10-30T06:10:29;7.93;;;6.23;;
18447;SDS011;9353;50.956;6.920;2022-10-30T06:12:57;6.87;;;6.37;;
18447;SDS011;9353;50.956;6.920;2022-10-30T06:15:24;9.30;;;6.10;;
18447;SDS011;9353;50.956;6.920;2022-10-30T06:17:53;6.33;;;5.53;;
18447;SDS011;9353;50.956;6.920;2022-10-30T06:20:21;9.43;;;6.50;;
18447;SDS011;9353;50.956;6.920;2022-10-30T06:22:53;6.17;;;5.67;;
18447;SDS011;9353;50.956;6.920;2022-10-30T06:25:21;8.80;;;5.70;;
18447;SDS011;9353;50.956;6.920;2022-10-30T06:27:48;8.97;;;5.63;;
18447;SDS011;9353;50.956;6.920;2022-10-30T06:30:15;10.43;;;5.70;;
18447;SDS011;9353;50.956;6.920;2022-10-30T06:32:42;8.03;;;6.43;;
18447;SDS011;9353;50.956;6.920;2022-10-30T06:35:09;11.03;;;6.23;;
18447;SDS011;9353;50.956;6.920;2022-10-30T06:37:36;7.40;;;6.27;;
18447;SDS011;9353;50.956;6.920;2022-10-30T06:40:06;7.67;;;6.00;;
18447;SDS011;9353;50.956;6.920;2022-10-30T06:42:40;7.03;;;6.33;;
18447;SDS011;9353;50.956;6.920;2022-10-30T06:45:07;9.37;;;5.93;;
18447;SDS011;9353;50.956;6.920;2022-10-30T06:47:35;9.20;;;6.10;;
18447;SDS011;9353;50.956;6.920;2022-10-30T06:50:02;7.07;;;6.47;;
18447;SDS011;9353;50.956;6.920;2022-10-30T06:52:29;7.13;;;6.43;;
18447;SDS011;9353;50.956;6.920;2022-10-30T06:54:56;8.50;;;6.93;;
18447;SDS011;9353;50.956;6.920;2022-10-30T06:57:25;8.83;;;6.40;;
18447;SDS011;9353;50.956;6.920;2022-10-30T06:59:52;7.83;;;7.13;;
18447;SDS011;9353;50.956;6.920;2022-10-30T07:02:19;7.40;;;6.43;;
18447;SDS011;9353;50.956;6.920;2022-10-30T07:04:46;10.30;;;6.30;;
18447;SDS011;9353;50.956;6.920;2022-10-30T07:07:13;12.00;;;6.60;;
18447;SDS011;9353;50.956;6.920;2022-10-30T07:09:40;10.37;;;6.70;;
18447;SDS011;9353;50.956;6.920;2022-10-30T07:12:08;7.87;;;6.00;;
18447;SDS011;9353;50.956;6.920;2022-10-30T07:14:36;7.40;;;6.70;;
18447;SDS011;9353;50.956;6.920;2022-10-30T07:17:03;8.07;;;5.50;;
18447;SDS011;9353;50.956;6.920;2022-10-30T07:19:30;7.13;;;6.47;;
18447;SDS011;9353;50.956;6.920;2022-10-30T07:21:59;9.20;;;6.30;;
18447;SDS011;9353;50.956;6.920;2022-10-30T07:24:26;9.70;;;7.33;;
18447;SDS011;9353;50.956;6.920;2022-10-30T07:26:53;8.83;;;6.43;;
18447;SDS011;9353;50.956;6.920;2022-10-30T07:29:20;8.67;;;6.03;;
18447;SDS011;9353;50.956;6.920;2022-10-30T07:31:49;10.23;;;6.47;;
18447;SDS011;9353;50.956;6.920;2022-10-30T07:34:16;8.73;;;6.27;;
18447;SDS011;9353;50.956;6.920;2022-10-30T07:36:43;10.87;;;6.70;;
18447;SDS011;9353;50.956;6.920;2022-10-30T07:39:10;8.67;;;6.60;;
18447;SDS011;9353;50.956;6.920;2022-10-30T07:41:37;8.93;;;6.63;;
18447;SDS011;9353;50.956;6.920;2022-10-30T07:44:04;8.63;;;6.50;;
18447;SDS011;9353;50.956;6.920;2022-10-30T07:46:31;9.77;;;6.50;;
18447;SDS011;9353;50.956;6.920;2022-10-30T07:49:00;6.67;;;6.00;;
18447;SDS011;9353;50.956;6.920;2022-10-30T07:51:27;7.23;;;6.50;;
18447;SDS011;9353;50.956;6.920;2022-10-30T07:53:54;6.53;;;5.90;;
18447;SDS011;9353;50.956;6.920;2022-10-30T07:56:21;7.07;;;6.17;;
18447;SDS011;9353;50.956;6.920;2022-10-30T07:58:48;10.27;;;6.37;;
18447;SDS011;9353;50.956;6.920;2022-10-30T08:01:15;7.17;;;6.37;;
18447;SDS011;9353;50.956;6.920;2022-10-30T08:03:42;7.87;;;5.60;;
18447;SDS011;9353;50.956;6.920;2022-10-30T08:06:11;8.63;;;5.60;;
18447;SDS011;9353;50.956;6.920;2022-10-30T08:08:38;8.03;;;5.40;;
18447;SDS011;9353;50.956;6.920;2022-10-30T08:11:05;7.03;;;5.97;;
18447;SDS011;9353;50.956;6.920;2022-10-30T08:13:32;7.20;;;6.17;;
18447;SDS011;9353;50.956;6.920;2022-10-30T08:15:59;6.57;;;6.03;;
18447;SDS011;9353;50.956;6.920;2022-10-30T08:18:26;8.17;;;6.20;;
18447;SDS011;9353;50.956;6.920;2022-10-30T08:20:53;8.30;;;5.93;;
18447;SDS011;9353;50.956;6.920;2022-10-30T08:23:22;10.27;;;6.30;;
18447;SDS011;9353;50.956;6.920;2022-10-30T08:25:49;6.43;;;5.93;;
18447;SDS011;9353;50.956;6.920;2022-10-30T08:28:16;10.33;;;6.10;;
18447;SDS011;9353;50.956;6.920;2022-10-30T08:30:43;6.30;;;5.77;;
18447;SDS011;9353;50.956;6.920;2022-10-30T08:33:10;11.70;;;6.43;;
18447;SDS011;9353;50.956;6.920;2022-10-30T08:35:38;6.47;;;5.67;;
18447;SDS011;9353;50.956;6.920;2022-10-30T08:38:12;9.83;;;6.27;;
18447;SDS011;9353;50.956;6.920;2022-10-30T08:40:40;5.97;;;5.43;;
18447;SDS011;9353;50.956;6.920;2022-10-30T08:43:07;9.77;;;6.13;;
18447;SDS011;9353;50.956;6.920;2022-10-30T08:45:35;7.07;;;5.73;;
18447;SDS011;9353;50.956;6.920;2022-10-30T08:48:03;6.50;;;5.90;;
18447;SDS011;9353;50.956;6.920;2022-10-30T08:50:30;9.33;;;5.90;;
18447;SDS011;9353;50.956;6.920;2022-10-30T08:52:59;10.43;;;6.70;;
18447;SDS011;9353;50.956;6.920;2022-10-30T08:55:26;12.17;;;6.47;;
18447;SDS011;9353;50.956;6.920;2022-10-30T08:57:55;6.67;;;6.10;;
18447;SDS011;9353;50.956;6.920;2022-10-30T09:00:22;8.63;;;5.70;;
18447;SDS011;9353;50.956;6.920;2022-10-30T09:02:49;11.93;;;6.33;;
18447;SDS011;9353;50.956;6.920;2022-10-30T09:05:16;6.53;;;6.03;;
18447;SDS011;9353;50.956;6.920;2022-10-30T09:07:43;10.33;;;6.37;;
18447;SDS011;9353;50.956;6.920;2022-10-30T09:10:10;8.57;;;7.87;;
18447;SDS011;9353;50.956;6.920;2022-10-30T09:12:38;6.87;;;5.60;;
18447;SDS011;9353;50.956;6.920;2022-10-30T09:15:07;6.37;;;5.47;;
18447;SDS011;9353;50.956;6.920;2022-10-30T09:17:34;11.90;;;6.00;;
18447;SDS011;9353;50.956;6.920;2022-10-30T09:20:01;5.90;;;5.40;;
18447;SDS011;9353;50.956;6.920;2022-10-30T09:22:28;11.73;;;5.13;;
18447;SDS011;9353;50.956;6.920;2022-10-30T09:24:55;7.93;;;6.03;;
18447;SDS011;9353;50.956;6.920;2022-10-30T09:27:22;7.23;;;5.17;;
18447;SDS011;9353;50.956;6.920;2022-10-30T09:29:49;6.80;;;6.10;;
18447;SDS011;9353;50.956;6.920;2022-10-30T09:32:18;6.50;;;5.67;;
18447;SDS011;9353;50.956;6.920;2022-10-30T09:34:45;5.67;;;5.17;;
18447;SDS011;9353;50.956;6.920;2022-10-30T09:37:12;6.00;;;5.33;;
18447;SDS011;9353;50.956;6.920;2022-10-30T09:39:39;7.87;;;6.07;;
18447;SDS011;9353;50.956;6.920;2022-10-30T09:42:10;7.63;;;5.67;;
18447;SDS011;9353;50.956;6.920;2022-10-30T09:44:43;7.03;;;5.70;;
18447;SDS011;9353;50.956;6.920;2022-10-30T09:47:18;8.10;;;5.00;;
18447;SDS011;9353;50.956;6.920;2022-10-30T09:49:53;9.07;;;5.43;;
18447;SDS011;9353;50.956;6.920;2022-10-30T09:52:27;6.80;;;5.13;;
18447;SDS011;9353;50.956;6.920;2022-10-30T09:54:55;8.77;;;5.13;;
18447;SDS011;9353;50.956;6.920;2022-10-30T09:57:29;7.50;;;6.10;;
18447;SDS011;9353;50.956;6.920;2022-10-30T10:00:01;6.67;;;4.97;;
18447;SDS011;9353;50.956;6.920;2022-10-30T10:02:32;10.23;;;4.95;;
18447;SDS011;9353;50.956;6.920;2022-10-30T10:05:03;7.97;;;5.35;;
18447;SDS011;9353;50.956;6.920;2022-10-30T10:07:32;10.37;;;5.90;;
18447;SDS011;9353;50.956;6.920;2022-10-30T10:10:03;7.47;;;5.27;;
18447;SDS011;9353;50.956;6.920;2022-10-30T10:12:32;9.33;;;5.03;;
18447;SDS011;9353;50.956;6.920;2022-10-30T10:15:02;8.43;;;5.15;;
18447;SDS011;9353;50.956;6.920;2022-10-30T10:17:33;7.43;;;5.17;;
18447;SDS011;9353;50.956;6.920;2022-10-30T10:20:02;5.32;;;4.82;;
18447;SDS011;9353;50.956;6.920;2022-10-30T10:22:31;9.63;;;5.23;;
18447;SDS011;9353;50.956;6.920;2022-10-30T10:25:02;5.50;;;5.00;;
18447;SDS011;9353;50.956;6.920;2022-10-30T10:27:32;6.85;;;4.55;;
18447;SDS011;9353;50.956;6.920;2022-10-30T10:30:07;11.52;;;5.07;;
18447;SDS011;9353;50.956;6.920;2022-10-30T10:32:44;7.63;;;4.55;;
18447;SDS011;9353;50.956;6.920;2022-10-30T10:35:19;8.48;;;4.93;;
18447;SDS011;9353;50.956;6.920;2022-10-30T10:37:51;5.97;;;5.35;;
18447;SDS011;9353;50.956;6.920;2022-10-30T10:40:25;13.50;;;5.40;;
18447;SDS011;9353;50.956;6.920;2022-10-30T10:42:59;7.18;;;5.10;;
18447;SDS011;9353;50.956;6.920;2022-10-30T10:45:28;5.73;;;4.83;;
18447;SDS011;9353;50.956;6.920;2022-10-30T10:50:47;6.35;;;4.15;;
18447;SDS011;9353;50.956;6.920;2022-10-30T10:53:17;4.95;;;4.45;;
18447;SDS011;9353;50.956;6.920;2022-10-30T10:55:46;6.35;;;4.45;;
18447;SDS011;9353;50.956;6.920;2022-10-30T10:58:16;10.90;;;4.70;;
18447;SDS011;9353;50.956;6.920;2022-10-30T11:00:47;5.38;;;4.53;;
18447;SDS011;9353;50.956;6.920;2022-10-30T11:03:16;9.70;;;4.68;;
18447;SDS011;9353;50.956;6.920;2022-10-30T11:05:49;8.85;;;4.90;;
18447;SDS011;9353;50.956;6.920;2022-10-30T11:08:18;5.65;;;4.32;;
18447;SDS011;9353;50.956;6.920;2022-10-30T11:10:45;6.65;;;4.32;;
18447;SDS011;9353;50.956;6.920;2022-10-30T11:13:15;6.47;;;4.20;;
18447;SDS011;9353;50.956;6.920;2022-10-30T11:15:46;5.97;;;5.07;;
18447;SDS011;9353;50.956;6.920;2022-10-30T11:18:16;6.28;;;4.20;;
18447;SDS011;9353;50.956;6.920;2022-10-30T11:20:46;5.60;;;4.88;;
18447;SDS011;9353;50.956;6.920;2022-10-30T11:23:31;5.93;;;4.38;;
18447;SDS011;9353;50.956;6.920;2022-10-30T11:25:58;6.68;;;4.25;;
18447;SDS011;9353;50.956;6.920;2022-10-30T11:28:30;5.65;;;4.57;;
18447;SDS011;9353;50.956;6.920;2022-10-30T11:31:15;5.45;;;4.32;;
18447;SDS011;9353;50.956;6.920;2022-10-30T11:33:42;5.30;;;4.40;;
18447;SDS011;9353;50.956;6.920;2022-10-30T11:36:12;5.00;;;4.40;;
18447;SDS011;9353;50.956;6.920;2022-10-30T11:38:41;8.98;;;4.57;;
18447;SDS011;9353;50.956;6.920;2022-10-30T11:41:08;7.35;;;4.28;;
18447;SDS011;9353;50.956;6.920;2022-10-30T11:43:36;7.55;;;4.60;;
18447;SDS011;9353;50.956;6.920;2022-10-30T11:46:04;8.35;;;4.70;;
18447;SDS011;9353;50.956;6.920;2022-10-30T11:48:33;10.27;;;5.05;;
18447;SDS011;9353;50.956;6.920;2022-10-30T11:51:03;8.55;;;3.97;;
18447;SDS011;9353;50.956;6.920;2022-10-30T11:53:31;7.55;;;4.50;;
18447;SDS011;9353;50.956;6.920;2022-10-30T11:56:02;7.85;;;4.95;;
18447;SDS011;9353;50.956;6.920;2022-10-30T11:58:30;6.70;;;4.32;;
18447;SDS011;9353;50.956;6.920;2022-10-30T12:01:00;7.43;;;4.47;;
18447;SDS011;9353;50.956;6.920;2022-10-30T12:03:28;7.32;;;4.38;;
18447;SDS011;9353;50.956;6.920;2022-10-30T12:06:08;5.93;;;4.35;;
18447;SDS011;9353;50.956;6.920;2022-10-30T12:08:36;6.28;;;4.35;;
18447;SDS011;9353;50.956;6.920;2022-10-30T12:11:04;4.80;;;4.35;;
18447;SDS011;9353;50.956;6.920;2022-10-30T12:13:35;4.28;;;3.88;;
18447;SDS011;9353;50.956;6.920;2022-10-30T12:16:04;11.88;;;5.18;;
18447;SDS011;9353;50.956;6.920;2022-10-30T12:18:32;11.25;;;4.38;;
18447;SDS011;9353;50.956;6.920;2022-10-30T12:20:59;6.45;;;4.25;;
18447;SDS011;9353;50.956;6.920;2022-10-30T12:23:27;5.20;;;4.75;;
18447;SDS011;9353;50.956;6.920;2022-10-30T12:25:55;5.90;;;3.60;;
18447;SDS011;9353;50.956;6.920;2022-10-30T12:28:26;6.63;;;4.30;;
18447;SDS011;9353;50.956;6.920;2022-10-30T12:30:53;7.47;;;4.20;;
18447;SDS011;9353;50.956;6.920;2022-10-30T12:33:24;8.18;;;4.13;;
18447;SDS011;9353;50.956;6.920;2022-10-30T12:35:53;6.90;;;4.35;;
18447;SDS011;9353;50.956;6.920;2022-10-30T12:38:23;7.82;;;4.28;;
18447;SDS011;9353;50.956;6.920;2022-10-30T12:40:55;5.60;;;4.40;;
18447;SDS011;9353;50.956;6.920;2022-10-30T12:43:26;5.70;;;3.80;;
18447;SDS011;9353;50.956;6.920;2022-10-30T12:45:54;6.40;;;4.68;;
18447;SDS011;9353;50.956;6.920;2022-10-30T12:48:23;8.43;;;4.10;;
18447;SDS011;9353;50.956;6.920;2022-10-30T12:50:54;8.13;;;4.40;;
18447;SDS011;9353;50.956;6.920;2022-10-30T12:53:25;7.05;;;3.83;;
18447;SDS011;9353;50.956;6.920;2022-10-30T12:55:54;4.05;;;3.72;;
18447;SDS011;9353;50.956;6.920;2022-10-30T12:58:25;5.68;;;3.65;;
18447;SDS011;9353;50.956;6.920;2022-10-30T13:00:55;5.82;;;5.03;;
18447;SDS011;9353;50.956;6.920;2022-10-30T13:03:26;9.25;;;4.40;;
18447;SDS011;9353;50.956;6.920;2022-10-30T13:05:56;8.02;;;3.85;;
18447;SDS011;9353;50.956;6.920;2022-10-30T13:08:26;8.57;;;4.30;;
18447;SDS011;9353;50.956;6.920;2022-10-30T13:10:57;4.63;;;3.75;;
18447;SDS011;9353;50.956;6.920;2022-10-30T13:13:29;4.45;;;3.90;;
18447;SDS011;9353;50.956;6.920;2022-10-30T13:15:59;4.68;;;4.15;;
18447;SDS011;9353;50.956;6.920;2022-10-30T13:18:28;6.22;;;4.10;;
18447;SDS011;9353;50.956;6.920;2022-10-30T13:20:59;7.40;;;4.47;;
18447;SDS011;9353;50.956;6.920;2022-10-30T13:23:29;6.40;;;4.03;;
18447;SDS011;9353;50.956;6.920;2022-10-30T13:26:01;4.82;;;3.88;;
18447;SDS011;9353;50.956;6.920;2022-10-30T13:28:31;7.47;;;4.78;;
18447;SDS011;9353;50.956;6.920;2022-10-30T13:31:00;5.28;;;3.60;;
18447;SDS011;9353;50.956;6.920;2022-10-30T13:33:33;4.40;;;3.60;;
18447;SDS011;9353;50.956;6.920;2022-10-30T13:36:03;8.35;;;3.97;;
18447;SDS011;9353;50.956;6.920;2022-10-30T13:38:35;5.10;;;3.97;;
18447;SDS011;9353;50.956;6.920;2022-10-30T13:41:05;7.80;;;4.38;;
18447;SDS011;9353;50.956;6.920;2022-10-30T13:43:35;4.85;;;3.70;;
18447;SDS011;9353;50.956;6.920;2022-10-30T13:46:15;3.65;;;3.30;;
18447;SDS011;9353;50.956;6.920;2022-10-30T13:48:52;5.90;;;4.05;;
18447;SDS011;9353;50.956;6.920;2022-10-30T13:51:27;6.13;;;3.30;;
18447;SDS011;9353;50.956;6.920;2022-10-30T13:53:59;4.75;;;3.63;;
18447;SDS011;9353;50.956;6.920;2022-10-30T13:56:27;7.53;;;3.80;;
18447;SDS011;9353;50.956;6.920;2022-10-30T13:58:56;6.25;;;3.88;;
18447;SDS011;9353;50.956;6.920;2022-10-30T14:01:31;7.55;;;4.30;;
18447;SDS011;9353;50.956;6.920;2022-10-30T14:04:00;4.53;;;3.40;;
18447;SDS011;9353;50.956;6.920;2022-10-30T14:06:35;4.90;;;3.90;;
18447;SDS011;9353;50.956;6.920;2022-10-30T14:09:07;6.33;;;4.00;;
18447;SDS011;9353;50.956;6.920;2022-10-30T14:11:35;13.15;;;4.13;;
18447;SDS011;9353;50.956;6.920;2022-10-30T14:14:03;4.15;;;3.78;;
18447;SDS011;9353;50.956;6.920;2022-10-30T14:16:36;5.75;;;4.35;;
18447;SDS011;9353;50.956;6.920;2022-10-30T14:19:04;5.70;;;3.72;;
18447;SDS011;9353;50.956;6.920;2022-10-30T14:21:36;4.15;;;3.70;;
18447;SDS011;9353;50.956;6.920;2022-10-30T14:24:07;7.07;;;4.03;;
18447;SDS011;9353;50.956;6.920;2022-10-30T14:26:36;4.60;;;4.15;;
18447;SDS011;9353;50.956;6.920;2022-10-30T14:31:46;4.03;;;3.72;;
18447;SDS011;9353;50.956;6.920;2022-10-30T14:36:55;5.37;;;3.77;;
18447;SDS011;9353;50.956;6.920;2022-10-30T14:39:26;5.63;;;3.90;;
18447;SDS011;9353;50.956;6.920;2022-10-30T14:41:57;5.57;;;3.60;;
18447;SDS011;9353;50.956;6.920;2022-10-30T14:44:29;7.80;;;3.97;;
18447;SDS011;9353;50.956;6.920;2022-10-30T14:49:48;4.75;;;3.63;;
18447;SDS011;9353;50.956;6.920;2022-10-30T14:52:19;4.32;;;3.78;;
18447;SDS011;9353;50.956;6.920;2022-10-30T14:54:50;6.13;;;4.77;;
18447;SDS011;9353;50.956;6.920;2022-10-30T14:57:20;7.03;;;3.85;;
18447;SDS011;9353;50.956;6.920;2022-10-30T14:59:48;6.20;;;4.07;;
18447;SDS011;9353;50.956;6.920;2022-10-30T15:02:22;9.07;;;4.50;;
18447;SDS011;9353;50.956;6.920;2022-10-30T15:05:02;7.57;;;3.67;;
18447;SDS011;9353;50.956;6.920;2022-10-30T15:07:35;4.10;;;3.80;;
18447;SDS011;9353;50.956;6.920;2022-10-30T15:10:06;10.33;;;4.00;;
18447;SDS011;9353;50.956;6.920;2022-10-30T15:12:42;4.90;;;3.83;;
18447;SDS011;9353;50.956;6.920;2022-10-30T15:15:12;5.83;;;3.90;;
18447;SDS011;9353;50.956;6.920;2022-10-30T15:17:40;4.93;;;4.13;;
18447;SDS011;9353;50.956;6.920;2022-10-30T15:20:14;6.90;;;4.10;;
18447;SDS011;9353;50.956;6.920;2022-10-30T15:22:41;7.60;;;3.97;;
18447;SDS011;9353;50.956;6.920;2022-10-30T15:25:12;5.15;;;3.55;;